Time;durP1;ratioP1;P1;durP2;ratioP2;P2;SDS_P1;SDS_P2;PMS_P1;PMS_P2;Temp;Humidity;BMP_temperature;BMP_pressure;BME280_temperature;BME280_humidity;BME280_pressure;Samples;Min_cycle;Max_cycle;Signal;HPM_P1;HPM_P2
2021/05/11 14:04:14;;;;;;;52.05;14.13;;;;;21.50;101790.00;;;;5048349;28;20059;-69
2021/05/11 14:15:57;;;;;;;29.40;8.55;;;;;21.30;101784.00;;;;5054525;27;20451;-72
2021/05/11 14:18:23;;;;;;;23.55;6.65;;;;;21.20;101794.00;;;;5045744;28;20454;-70
2021/05/11 14:20:50;;;;;;;31.23;7.28;;;;;21.10;101793.00;;;;5047350;28;20127;-68
2021/05/11 14:23:19;;;;;;;27.95;7.15;;;;;21.10;101790.00;;;;5045501;28;20108;-69
2021/05/11 14:25:46;;;;;;;24.42;5.80;;;;;21.10;101786.00;;;;5046303;28;20037;-69
2021/05/11 14:28:12;;;;;;;26.40;5.85;;;;;21.10;101781.00;;;;5046111;28;20032;-71
2021/05/11 14:30:39;;;;;;;23.33;5.57;;;;;21.20;101779.00;;;;5045334;28;20083;-69
2021/05/11 14:33:06;;;;;;;19.38;5.30;;;;;21.00;101777.00;;;;5046324;28;20036;-69
2021/05/11 14:35:32;;;;;;;19.88;4.50;;;;;20.90;101773.00;;;;5047707;28;20038;-72
2021/05/11 19:32:23;;;;;;;11.02;2.05;;;;;21.00;101682.00;;;;5051229;27;20505;-63
2021/05/11 19:34:50;;;;;;;14.50;2.42;;;;;20.90;101669.00;;;;5049648;28;20045;-64
2021/05/11 19:37:18;;;;;;;7.75;2.05;;;;;20.90;101682.00;;;;5043330;28;20460;-63
2021/05/11 19:39:44;;;;;;;11.93;2.47;;;;;20.90;101680.00;;;;5052958;28;20033;-64
2021/05/11 19:42:11;;;;;;;8.90;2.20;;;;;20.90;101671.00;;;;5042921;28;20363;-64
2021/05/11 19:44:37;;;;;;;8.95;2.13;;;;;20.90;101652.00;;;;5042338;28;20029;-64
2021/05/11 19:47:13;;;;;;;16.77;2.67;;;;;21.90;101668.00;;;;5042703;28;20021;-73
2021/05/11 19:49:39;;;;;;;8.50;2.63;;;;;21.60;101668.00;;;;5055821;28;20529;-67
2021/05/11 19:52:06;;;;;;;9.57;2.70;;;;;20.90;101674.00;;;;5033282;28;20574;-66
2021/05/11 19:54:32;;;;;;;8.80;1.90;;;;;20.80;101662.00;;;;5049727;28;20728;-68
2021/05/11 20:01:15;;;;;;;8.98;2.65;;;;;21.00;101676.00;;;;5036621;27;20515;-68
2021/05/11 20:03:51;;;;;;;12.70;2.83;;;;;21.00;101681.00;;;;5037666;28;20135;-68
2021/05/11 20:06:17;;;;;;;12.70;2.50;;;;;21.00;101682.00;;;;5037445;28;20036;-67
2021/05/11 20:08:44;;;;;;;7.57;2.00;;;;;20.90;101682.00;;;;5036925;28;20029;-70
2021/05/11 20:11:10;;;;;;;10.32;2.72;;;;;21.00;101682.00;;;;5037206;28;20038;-69
2021/05/11 20:13:37;;;;;;;10.23;2.20;;;;;20.90;101682.00;;;;5038103;28;20028;-66
2021/05/11 20:16:03;;;;;;;6.68;2.40;;;;;21.00;101682.00;;;;5039708;28;20048;-65
2021/05/11 20:18:30;;;;;;;10.98;2.45;;;;;20.80;101678.00;;;;5037035;28;20033;-66
2021/05/11 20:20:56;;;;;;;11.48;2.63;;;;;20.90;101673.00;;;;5037297;28;20040;-66
2021/05/11 20:23:23;;;;;;;14.73;2.63;;;;;20.60;101673.00;;;;5037076;28;20044;-63
2021/05/11 20:25:49;;;;;;;11.95;3.60;;;;;20.80;101689.00;;;;5039107;28;20048;-64
2021/05/11 20:28:19;;;;;;;8.98;2.92;;;;;20.90;101708.00;;;;5041592;28;20537;-65
2021/05/11 20:30:48;;;;;;;10.63;2.28;;;;;20.80;101708.00;;;;5038377;28;21833;-68
2021/05/11 20:33:21;;;;;;;13.25;2.80;;;;;20.80;101699.00;;;;5039201;28;20037;-65
2021/05/11 20:35:54;;;;;;;15.63;2.75;;;;;21.00;101699.00;;;;5038494;28;20090;-68
2021/05/11 20:38:23;;;;;;;15.63;3.05;;;;;21.10;101697.00;;;;5037191;28;20064;-73
2021/05/11 20:40:50;;;;;;;14.05;3.50;;;;;21.30;101701.00;;;;5045491;28;20127;-73
2021/05/11 20:43:20;;;;;;;11.30;3.28;;;;;21.20;101700.00;;;;5056207;28;20120;-73
2021/05/11 20:45:46;;;;;;;10.50;3.40;;;;;21.10;101690.00;;;;5042912;28;21652;-74
2021/05/11 20:48:19;;;;;;;10.45;3.92;;;;;21.00;101704.00;;;;5041412;28;20376;-74
